Terminal Aerodrome Forecast
Issued by NWS

Home | Current Version | Previous Version | Text Only | Print | Product List | Glossary On
Versions: 1 2 3 4 5 6 7 8 9 10 11 12 13 14 15 16 17
000
FTUS42 KMLB 021732
TAFFPR
TAF
KFPR 021732Z 0218/0318 08005KT P6SM SKC
     FM030000 06003KT P6SM FEW025 BKN250
     FM030600 08003KT 5SM BR SCT005
      TEMPO 0309/0313 2SM BR BKN005
     FM031400 10009KT P6SM SCT025=

USA.gov is the U.S. government's official web portal to all federal, state and local government web resources and services.